Awajishima — JD4140 — position and weather

sailwx.info

Track history (hours):
 
Tides and Currents Weather Stations Pressure Air Temp Water Temp Dewpoint Dewpoint Depression Visibility Wind Speed Wind Dir Waves Ship Positions

Awajishima

Last reported at 2018-Apr-24 09:08 UTC. Time now 2018-Apr-25 06:52 UTC.
Position N 41°50' E 141°12'.

Length 105 m; draft 5.4 m.

Type: Tanker. MMSI: 431009313.

Date/timePositionNaut miles runAvg speedWind from/ knotsBaromVisibWave heightAir tempDewpointWater temp
2018-Apr-24 09:08N 41°50' E 141°12'214.2
2018-Apr-24 09:00N 41°48' E 141°12'713.6
2018-Apr-24 08:30N 41°43' E 141°06'714.8
2018-Apr-24 08:00N 41°41' E 140°57'815.1
2018-Apr-24 07:30N 41°43' E 140°47'612.2
2018-Apr-24 07:01N 41°46' E 140°40'2 3.2
2018-Apr-24 06:29N 41°46' E 140°43'0 0.0
2018-Apr-24 06:00N 41°46' E 140°43'0 0.0
2018-Apr-24 05:30N 41°46' E 140°43'0 0.0
2018-Apr-24 05:00N 41°46' E 140°43'0 0.0
2018-Apr-24 04:30N 41°46' E 140°43'0 0.0
2018-Apr-24 04:00N 41°46' E 140°43'0 0.0
2018-Apr-24 03:29N 41°46' E 140°43'0 0.0
2018-Apr-24 03:00N 41°46' E 140°43'0 0.0
2018-Apr-24 02:30N 41°46' E 140°43'0 0.0
2018-Apr-24 02:00N 41°46' E 140°43'0 0.0
2018-Apr-24 01:30N 41°46' E 140°43'0 0.0
2018-Apr-24 00:59N 41°46' E 140°43'1 3.0
2018-Apr-24 00:30N 41°48' E 140°42'2 4.2
2018-Apr-24 00:00N 41°46' E 140°40'0 0.0
2018-Apr-23 23:28N 41°46' E 140°40'0 0.0
2018-Apr-23 22:58N 41°46' E 140°40'0 0.0
2018-Apr-23 22:28N 41°46' E 140°40'0 0.1
2018-Apr-23 21:55N 41°46' E 140°40'0 0.1
2018-Apr-23 21:22N 41°46' E 140°40'0 0.1
2018-Apr-23 20:58N 41°46' E 140°40'0 0.0
2018-Apr-23 20:28N 41°46' E 140°40'0 0.1
2018-Apr-23 19:58N 41°46' E 140°40'0 0.0
2018-Apr-23 19:19N 41°46' E 140°40'0 0.0
2018-Apr-23 18:58N 41°46' E 140°40'0 0.0
2018-Apr-23 18:28N 41°46' E 140°40'0 0.0
2018-Apr-23 17:58N 41°46' E 140°40'0 0.0
2018-Apr-23 17:28N 41°46' E 140°40'0 0.0
2018-Apr-23 16:55N 41°46' E 140°40'0 0.0
2018-Apr-23 16:28N 41°46' E 140°40'0 0.0
2018-Apr-23 15:58N 41°46' E 140°40'0 0.0
2018-Apr-23 15:28N 41°46' E 140°40'0 0.0
2018-Apr-23 14:58N 41°46' E 140°40'0 0.0
2018-Apr-23 14:28N 41°46' E 140°40'0 0.0
2018-Apr-23 13:58N 41°46' E 140°40'0 0.0
2018-Apr-23 13:28N 41°46' E 140°40'0 0.0
2018-Apr-23 12:58N 41°46' E 140°40'0 0.0
2018-Apr-23 12:25N 41°46' E 140°40'0 0.0
2018-Apr-23 11:58N 41°46' E 140°40'0 0.0
2018-Apr-23 11:25N 41°46' E 140°40'0 0.0
2018-Apr-23 10:58N 41°46' E 140°40'0 0.0
2018-Apr-23 10:25N 41°46' E 140°40'0 0.0
2018-Apr-23 09:58N 41°46' E 140°40'0 0.0
2018-Apr-23 09:28N 41°46' E 140°40'0 0.0
2018-Apr-23 08:58N 41°46' E 140°40'0 0.0
2018-Apr-23 08:28N 41°46' E 140°40'0 0.0
2018-Apr-23 07:58N 41°46' E 140°40'0 0.0
2018-Apr-23 07:28N 41°46' E 140°40'3 7.2
2018-Apr-23 07:00N 41°43' E 140°42'714.3
2018-Apr-23 06:30N 41°41' E 140°52'612.8
2018-Apr-23 06:00N 41°39' E 140°60'713.7
2018-Apr-23 05:30N 41°37' E 141°08'713.2
2018-Apr-23 05:00N 41°35' E 141°17'1 1.4
2018-Apr-23 04:30N 41°35' E 141°17'1 1.4
2018-Apr-23 04:00N 41°34' E 141°16'1 1.6
2018-Apr-23 03:30N 41°33' E 141°16'5 9.3
2018-Apr-23 03:00N 41°35' E 141°10'612.3
2018-Apr-23 02:30N 41°37' E 141°02'612.8
2018-Apr-23 02:00N 41°40' E 140°54'612.5
2018-Apr-23 01:30N 41°42' E 140°46'611.8
2018-Apr-23 01:01N 41°46' E 140°40'3 5.6
2018-Apr-23 00:30N 41°47' E 140°43'0 0.0
2018-Apr-23 00:00N 41°47' E 140°43'0 0.0
2018-Apr-22 23:30N 41°47' E 140°43'0 0.0
2018-Apr-22 23:00N 41°47' E 140°43'0 0.0
2018-Apr-22 22:30N 41°47' E 140°43'0 0.0
2018-Apr-22 22:00N 41°47' E 140°43'0 0.0
2018-Apr-22 21:30N 41°47' E 140°43'0 0.0
2018-Apr-22 21:00N 41°47' E 140°43'0 0.0
2018-Apr-22 20:30N 41°47' E 140°43'0 0.0
2018-Apr-22 20:00N 41°47' E 140°43'0 0.0
2018-Apr-22 19:30N 41°47' E 140°43'0 0.0
2018-Apr-22 18:59N 41°47' E 140°43'0 0.0
2018-Apr-22 18:29N 41°47' E 140°43'0 0.0
2018-Apr-22 17:59N 41°47' E 140°43'0 0.0
2018-Apr-22 17:26N 41°47' E 140°43'0 0.0
2018-Apr-22 16:59N 41°47' E 140°43'0 0.0
2018-Apr-22 16:29N 41°47' E 140°43'0 0.0
2018-Apr-22 15:59N 41°47' E 140°43'0 0.0
2018-Apr-22 15:29N 41°47' E 140°43'0 0.0
2018-Apr-22 14:56N 41°47' E 140°43'0 0.0
2018-Apr-22 14:29N 41°47' E 140°43'0 0.0
2018-Apr-22 13:56N 41°47' E 140°43'0 0.0
2018-Apr-22 13:29N 41°47' E 140°43'0 0.0
2018-Apr-22 12:59N 41°47' E 140°43'0 0.0
2018-Apr-22 12:29N 41°47' E 140°43'0 0.0
2018-Apr-22 11:59N 41°47' E 140°43'0 0.0
2018-Apr-22 11:26N 41°47' E 140°43'0 0.0
2018-Apr-22 10:50N 41°47' E 140°43'0 0.0
2018-Apr-22 10:29N 41°47' E 140°43'0 0.0
2018-Apr-22 09:59N 41°47' E 140°43'0 0.0
2018-Apr-22 09:29N 41°47' E 140°43'0 0.0
2018-Apr-22 08:56N 41°47' E 140°43'0 0.0
2018-Apr-22 08:29N 41°47' E 140°43'0 0.0
2018-Apr-22 07:56N 41°47' E 140°43'0 0.0
2018-Apr-22 07:20N 41°47' E 140°43'0 0.0
2018-Apr-22 06:59N 41°47' E 140°43'0 0.0
2018-Apr-22 06:29N 41°47' E 140°43'0 0.0
2018-Apr-22 05:56N 41°47' E 140°43'0 0.0
2018-Apr-22 05:26N 41°47' E 140°43'0 0.0
2018-Apr-22 04:56N 41°47' E 140°43'0 0.0
2018-Apr-22 04:26N 41°47' E 140°43'0 0.0
2018-Apr-22 03:59N 41°47' E 140°43'0 0.0
2018-Apr-22 03:29N 41°47' E 140°43'0 0.0
2018-Apr-22 03:01N 41°47' E 140°43'0 0.0
2018-Apr-22 02:31N 41°47' E 140°43'0 0.0
2018-Apr-22 02:01N 41°47' E 140°43'0 0.0
2018-Apr-22 01:31N 41°47' E 140°43'0 0.0
2018-Apr-22 01:01N 41°47' E 140°43'0 0.0
2018-Apr-22 00:31N 41°47' E 140°43'0 0.0
2018-Apr-22 00:01N 41°47' E 140°43'0 0.0
2018-Apr-21 23:31N 41°47' E 140°43'0 0.0
2018-Apr-21 23:01N 41°47' E 140°43'0 0.0
2018-Apr-21 22:31N 41°47' E 140°43'0 0.0
2018-Apr-21 22:01N 41°47' E 140°43'0 0.0
2018-Apr-21 21:28N 41°47' E 140°43'0 0.0
2018-Apr-21 21:01N 41°47' E 140°43'0 0.0
2018-Apr-21 20:28N 41°47' E 140°43'0 0.0
2018-Apr-21 20:01N 41°47' E 140°43'0 0.0
2018-Apr-21 19:28N 41°47' E 140°43'0 0.0
2018-Apr-21 18:58N 41°47' E 140°43'0 0.0
2018-Apr-21 18:28N 41°47' E 140°43'0 0.0
2018-Apr-21 18:01N 41°47' E 140°43'0 0.0
2018-Apr-21 17:28N 41°47' E 140°43'0 0.0
2018-Apr-21 16:55N 41°47' E 140°43'0 0.0
2018-Apr-21 16:31N 41°47' E 140°43'0 0.0
2018-Apr-21 15:58N 41°47' E 140°43'0 0.0
2018-Apr-21 15:28N 41°47' E 140°43'0 0.0
2018-Apr-21 14:58N 41°47' E 140°43'0 0.0
2018-Apr-21 14:25N 41°47' E 140°43'0 0.0
2018-Apr-21 14:01N 41°47' E 140°43'0 0.0
2018-Apr-21 13:31N 41°47' E 140°43'0 0.0
2018-Apr-21 13:01N 41°47' E 140°43'0 0.0
2018-Apr-21 12:31N 41°47' E 140°43'0 0.0
2018-Apr-21 12:01N 41°47' E 140°43'0 0.0
2018-Apr-21 11:31N 41°47' E 140°43'0 0.0
2018-Apr-21 10:59N 41°47' E 140°43'0 0.0
2018-Apr-21 10:29N 41°47' E 140°43'0 0.0
2018-Apr-21 09:59N 41°47' E 140°43'0 0.0
2018-Apr-21 09:29N 41°47' E 140°43'0 0.0
2018-Apr-21 08:59N 41°47' E 140°43'0 0.0
2018-Apr-21 08:11N 41°47' E 140°43'0 0.0
2018-Apr-21 07:56N 41°47' E 140°43'0 0.0
2018-Apr-21 07:29N 41°47' E 140°43'0 0.0
2018-Apr-21 06:59N 41°47' E 140°43'0 0.0
2018-Apr-21 06:29N 41°47' E 140°43'0 0.0
2018-Apr-21 05:59N 41°47' E 140°43'0 0.0
2018-Apr-21 05:29N 41°47' E 140°43'0 0.0
2018-Apr-21 04:53N 41°47' E 140°43'0 0.0
2018-Apr-21 04:26N 41°47' E 140°43'0 0.0
2018-Apr-21 03:59N 41°47' E 140°43'0 0.0
2018-Apr-21 03:29N 41°47' E 140°43'0 0.0
2018-Apr-21 02:59N 41°47' E 140°43'0 0.0
2018-Apr-21 02:29N 41°47' E 140°43'0 0.0
2018-Apr-21 01:59N 41°47' E 140°43'0 0.0
2018-Apr-21 01:29N 41°47' E 140°43'0 0.0
2018-Apr-21 00:59N 41°47' E 140°43'0 0.0
2018-Apr-21 00:29N 41°47' E 140°43'0 0.0
2018-Apr-20 23:59N 41°47' E 140°43'0 0.0
2018-Apr-20 23:29N 41°47' E 140°43'0 0.0
2018-Apr-20 22:59N 41°47' E 140°43'0 0.0
2018-Apr-20 22:29N 41°47' E 140°43'0 0.0
2018-Apr-20 21:59N 41°47' E 140°43'0 0.0
2018-Apr-20 21:29N 41°47' E 140°43'0 0.0
2018-Apr-20 20:59N 41°47' E 140°43'0 0.0
2018-Apr-20 20:29N 41°47' E 140°43'0 0.0
2018-Apr-20 19:56N 41°47' E 140°43'0 0.0
2018-Apr-20 19:29N 41°47' E 140°43'0 0.0
2018-Apr-20 18:58N 41°47' E 140°43'0 0.0
2018-Apr-20 18:28N 41°47' E 140°43'0 0.0
2018-Apr-20 17:58N 41°47' E 140°43'0 0.0
2018-Apr-20 17:28N 41°47' E 140°43'0 0.0
2018-Apr-20 16:58N 41°47' E 140°43'0 0.0
2018-Apr-20 16:28N 41°47' E 140°43'0 0.0
2018-Apr-20 15:58N 41°47' E 140°43'0 0.0
2018-Apr-20 15:28N 41°47' E 140°43'0 0.0
2018-Apr-20 14:58N 41°47' E 140°43'0 0.0
2018-Apr-20 14:28N 41°47' E 140°43'0 0.0
2018-Apr-20 13:52N 41°47' E 140°43'0 0.0
2018-Apr-20 13:28N 41°47' E 140°43'0 0.0
2018-Apr-20 12:58N 41°47' E 140°43'0 0.0
2018-Apr-20 12:28N 41°47' E 140°43'0 0.0
2018-Apr-20 11:58N 41°47' E 140°43'0 0.0
2018-Apr-20 11:28N 41°47' E 140°43'0 0.0
2018-Apr-20 10:52N 41°47' E 140°43'0 0.0
2018-Apr-20 10:28N 41°47' E 140°43'0 0.0
2018-Apr-20 09:58N 41°47' E 140°43'0 0.0
2018-Apr-20 09:28N 41°47' E 140°43'0 0.0
2018-Apr-20 08:58N 41°47' E 140°43'0 0.0
2018-Apr-20 08:28N 41°47' E 140°43'0 0.0
2018-Apr-20 07:58N 41°47' E 140°43'0 0.0
2018-Apr-20 07:28N 41°47' E 140°43'0 0.0
2018-Apr-20 06:58N 41°47' E 140°43'0 0.0
2018-Apr-20 06:28N 41°47' E 140°43'0 0.0
2018-Apr-20 05:58N 41°47' E 140°43'0 0.1
2018-Apr-20 05:30N 41°47' E 140°43'3 7.0
2018-Apr-20 05:01N 41°45' E 140°40'815.7
2018-Apr-20 04:30N 41°38' E 140°35'917.3
2018-Apr-20 04:00N 41°30' E 140°30'917.8
2018-Apr-20 03:30N 41°23' E 140°23'917.9
2018-Apr-20 02:59N 41°15' E 140°15'1116.7
2018-Apr-20 02:20N 41°06' E 140°08'515.3
2018-Apr-20 01:58N 41°01' E 140°05'1215.2
2018-Apr-20 01:10N 40°50' E 139°57'315.7
2018-Apr-20 00:59N 40°48' E 139°56'  
2018-Apr-17 11:50N 34°27' E 130°54'413.2
2018-Apr-17 11:30N 34°24' E 130°50'612.3
2018-Apr-17 10:59N 34°18' E 130°47'713.8
2018-Apr-17 10:30N 34°11' E 130°49'713.9
2018-Apr-17 10:01N 34°05' E 130°51'713.4
2018-Apr-17 09:31N 33°58' E 130°53'4 7.5
2018-Apr-17 09:00N 33°55' E 130°56'4 8.3
2018-Apr-17 08:30N 33°58' E 130°59'3 5.6
2018-Apr-17 08:00N 33°58' E 131°02'612.6
2018-Apr-17 07:30N 33°54' E 131°08'612.5
2018-Apr-17 07:00N 33°52' E 131°15'713.7
2018-Apr-17 06:29N 33°53' E 131°24'613.4
2018-Apr-17 06:00N 33°54' E 131°31'713.3
2018-Apr-17 05:30N 33°57' E 131°39'612.8
2018-Apr-17 05:00N 33°60' E 131°46'4 0.6
2018-Apr-16 23:27N 34°02' E 131°49'2 3.7
2018-Apr-16 23:00N 34°01' E 131°47'0 0.0
2018-Apr-16 22:26N 34°01' E 131°47'0 0.0
2018-Apr-16 21:56N 34°01' E 131°47'0 0.0
2018-Apr-16 21:26N 34°01' E 131°47'0 0.0
2018-Apr-16 20:56N 34°01' E 131°47'0 0.0
2018-Apr-16 20:20N 34°01' E 131°47'0 0.0
2018-Apr-16 19:56N 34°01' E 131°47'0 0.0
2018-Apr-16 19:26N 34°01' E 131°47'0 0.0
2018-Apr-16 18:50N 34°01' E 131°47'0 0.0
2018-Apr-16 18:26N 34°01' E 131°47'0 0.0
2018-Apr-16 17:56N 34°01' E 131°47'0 0.0
2018-Apr-16 17:20N 34°01' E 131°47'0 0.0
2018-Apr-16 16:56N 34°01' E 131°47'0 0.0
2018-Apr-16 16:26N 34°01' E 131°47'0 0.0
2018-Apr-16 15:56N 34°01' E 131°47'0 0.0
2018-Apr-16 15:26N 34°01' E 131°47'0 0.0
2018-Apr-16 14:50N 34°01' E 131°47'0 0.1
2018-Apr-16 14:26N 34°01' E 131°47'0 0.0
2018-Apr-16 13:56N 34°01' E 131°47'0 0.0
2018-Apr-16 13:20N 34°01' E 131°47'2 4.8
2018-Apr-16 13:00N 33°60' E 131°46'612.5
2018-Apr-16 12:31N 33°54' E 131°46'714.2
2018-Apr-16 12:00N 33°47' E 131°48'714.3
2018-Apr-16 11:31N 33°40' E 131°46'815.5
2018-Apr-16 11:00N 33°32' E 131°47'915.4
2018-Apr-16 10:25N 33°23' E 131°44'614.3
2018-Apr-16 10:00N 33°18' E 131°41'1 0.3
2018-Apr-16 05:04N 33°17' E 131°41'0 2.7
2018-Apr-16 04:59N 33°17' E 131°41'5 9.6
2018-Apr-16 04:29N 33°21' E 131°42'0 0.6
2018-Apr-16 03:59N 33°22' E 131°42'0 0.0
2018-Apr-16 03:29N 33°22' E 131°42'0 0.0
2018-Apr-16 02:53N 33°22' E 131°42'0 0.0
2018-Apr-16 02:29N 33°22' E 131°42'0 0.0
2018-Apr-16 01:59N 33°22' E 131°42'5 8.8
2018-Apr-16 01:26N 33°26' E 131°46'714.1
2018-Apr-16 00:56N 33°32' E 131°47'715.0
2018-Apr-16 00:30N 33°39' E 131°47'714.6
2018-Apr-16 00:00N 33°46' E 131°46'714.4
2018-Apr-15 23:30N 33°53' E 131°45'713.3
2018-Apr-15 23:00N 33°60' E 131°46'0 0.8
2018-Apr-15 22:26N 33°60' E 131°46'0 0.0
2018-Apr-15 21:59N 33°60' E 131°46'0 0.1
2018-Apr-15 21:14N 33°60' E 131°46'0 0.0
2018-Apr-15 20:44N 33°60' E 131°46'0 0.0
2018-Apr-15 20:26N 33°60' E 131°46'0 0.0
2018-Apr-15 19:50N 33°60' E 131°46'0 0.0
2018-Apr-15 19:26N 33°60' E 131°46'0 0.0
2018-Apr-15 18:56N 33°60' E 131°46'0 0.0
2018-Apr-15 18:26N 33°60' E 131°46'0 0.0
2018-Apr-15 17:56N 33°60' E 131°46'0 0.1
2018-Apr-15 17:26N 33°60' E 131°46'0 0.0
2018-Apr-15 16:56N 33°60' E 131°46'0 0.0
2018-Apr-15 16:29N 33°60' E 131°46'0 0.1
2018-Apr-15 15:56N 33°60' E 131°46'0 0.0
2018-Apr-15 15:26N 33°60' E 131°46'0 0.0
2018-Apr-15 14:56N 33°60' E 131°46'0 0.0
2018-Apr-15 14:26N 33°60' E 131°46'0 0.0
2018-Apr-15 13:56N 33°60' E 131°46'0 0.0
2018-Apr-15 13:20N 33°60' E 131°46'0 0.1
2018-Apr-15 12:56N 33°60' E 131°46'0 0.0
2018-Apr-15 12:26N 33°60' E 131°46'0 0.0
2018-Apr-15 11:56N 33°60' E 131°46'0 0.0
2018-Apr-15 11:20N 33°60' E 131°46'0 0.1
2018-Apr-15 10:38N 33°60' E 131°46'0 0.0
2018-Apr-15 10:26N 33°60' E 131°46'0 0.0
2018-Apr-15 09:56N 33°60' E 131°46'0 0.0
2018-Apr-15 09:20N 33°60' E 131°46'0 0.0
2018-Apr-15 08:54N 33°60' E 131°46'0 0.1
2018-Apr-15 08:31N 33°60' E 131°46'3 0.3
2018-Apr-14 23:24N 34°02' E 131°49'3 6.9
2018-Apr-14 23:00N 34°00' E 131°46'0 0.5
2018-Apr-14 22:26N 33°60' E 131°46'0 0.0
2018-Apr-14 21:32N 33°60' E 131°46'0 0.0
2018-Apr-14 21:26N 33°60' E 131°46'0 0.0
2018-Apr-14 19:32N 33°60' E 131°46'0 0.0
2018-Apr-14 19:26N 33°60' E 131°46'0 0.1
2018-Apr-14 18:56N 33°60' E 131°46'0 0.0
2018-Apr-14 18:26N 33°60' E 131°46'0 0.0
2018-Apr-14 17:56N 33°60' E 131°46'0 0.0
2018-Apr-14 17:20N 33°60' E 131°46'0 0.0
2018-Apr-14 16:51N 33°60' E 131°46'0 0.3
2018-Apr-14 16:31N 33°60' E 131°46'4 7.5
2018-Apr-14 16:00N 33°56' E 131°47'712.3
2018-Apr-14 15:27N 33°52' E 131°53'612.6
2018-Apr-14 14:58N 33°48' E 131°59'610.7
2018-Apr-14 14:26N 33°47' E 132°06'713.2
2018-Apr-14 13:54N 33°50' E 132°13'612.9
2018-Apr-14 13:29N 33°50' E 132°20'712.1
2018-Apr-14 12:56N 33°52' E 132°28'613.0
2018-Apr-14 12:30N 33°54' E 132°34'612.7
2018-Apr-14 12:00N 33°57' E 132°41'611.7
2018-Apr-14 11:30N 34°01' E 132°45'  
Track history (hours):
 
Tides and Currents Weather Stations Pressure Air Temp Water Temp Dewpoint Dewpoint Depression Visibility Wind Speed Wind Dir Waves Ship Positions

Awajishima

Last reported at 2018-Apr-24 09:08 UTC. Time now 2018-Apr-25 06:52 UTC.
Position N 41°50' E 141°12'.

Length 105 m; draft 5.4 m.

Type: Tanker. MMSI: 431009313.

Date/timePositionNaut miles runAvg speedWind from/ knotsBaromVisibWave heightAir tempDewpointWater temp
2018-Apr-24 09:08N 41°50' E 141°12'214.2
2018-Apr-24 09:00N 41°48' E 141°12'713.6
2018-Apr-24 08:30N 41°43' E 141°06'714.8
2018-Apr-24 08:00N 41°41' E 140°57'815.1
2018-Apr-24 07:30N 41°43' E 140°47'612.2
2018-Apr-24 07:01N 41°46' E 140°40'2 3.2
2018-Apr-24 06:29N 41°46' E 140°43'0 0.0
2018-Apr-24 06:00N 41°46' E 140°43'0 0.0
2018-Apr-24 05:30N 41°46' E 140°43'0 0.0
2018-Apr-24 05:00N 41°46' E 140°43'0 0.0
2018-Apr-24 04:30N 41°46' E 140°43'0 0.0
2018-Apr-24 04:00N 41°46' E 140°43'0 0.0
2018-Apr-24 03:29N 41°46' E 140°43'0 0.0
2018-Apr-24 03:00N 41°46' E 140°43'0 0.0
2018-Apr-24 02:30N 41°46' E 140°43'0 0.0
2018-Apr-24 02:00N 41°46' E 140°43'0 0.0
2018-Apr-24 01:30N 41°46' E 140°43'0 0.0
2018-Apr-24 00:59N 41°46' E 140°43'1 3.0
2018-Apr-24 00:30N 41°48' E 140°42'2 4.2
2018-Apr-24 00:00N 41°46' E 140°40'0 0.0
2018-Apr-23 23:28N 41°46' E 140°40'0 0.0
2018-Apr-23 22:58N 41°46' E 140°40'0 0.0
2018-Apr-23 22:28N 41°46' E 140°40'0 0.1
2018-Apr-23 21:55N 41°46' E 140°40'0 0.1
2018-Apr-23 21:22N 41°46' E 140°40'0 0.1
2018-Apr-23 20:58N 41°46' E 140°40'0 0.0
2018-Apr-23 20:28N 41°46' E 140°40'0 0.1
2018-Apr-23 19:58N 41°46' E 140°40'0 0.0
2018-Apr-23 19:19N 41°46' E 140°40'0 0.0
2018-Apr-23 18:58N 41°46' E 140°40'0 0.0
2018-Apr-23 18:28N 41°46' E 140°40'0 0.0
2018-Apr-23 17:58N 41°46' E 140°40'0 0.0
2018-Apr-23 17:28N 41°46' E 140°40'0 0.0
2018-Apr-23 16:55N 41°46' E 140°40'0 0.0
2018-Apr-23 16:28N 41°46' E 140°40'0 0.0
2018-Apr-23 15:58N 41°46' E 140°40'0 0.0
2018-Apr-23 15:28N 41°46' E 140°40'0 0.0
2018-Apr-23 14:58N 41°46' E 140°40'0 0.0
2018-Apr-23 14:28N 41°46' E 140°40'0 0.0
2018-Apr-23 13:58N 41°46' E 140°40'0 0.0
2018-Apr-23 13:28N 41°46' E 140°40'0 0.0
2018-Apr-23 12:58N 41°46' E 140°40'0 0.0
2018-Apr-23 12:25N 41°46' E 140°40'0 0.0
2018-Apr-23 11:58N 41°46' E 140°40'0 0.0
2018-Apr-23 11:25N 41°46' E 140°40'0 0.0
2018-Apr-23 10:58N 41°46' E 140°40'0 0.0
2018-Apr-23 10:25N 41°46' E 140°40'0 0.0
2018-Apr-23 09:58N 41°46' E 140°40'0 0.0
2018-Apr-23 09:28N 41°46' E 140°40'0 0.0
2018-Apr-23 08:58N 41°46' E 140°40'0 0.0
2018-Apr-23 08:28N 41°46' E 140°40'0 0.0
2018-Apr-23 07:58N 41°46' E 140°40'0 0.0
2018-Apr-23 07:28N 41°46' E 140°40'3 7.2
2018-Apr-23 07:00N 41°43' E 140°42'714.3
2018-Apr-23 06:30N 41°41' E 140°52'612.8
2018-Apr-23 06:00N 41°39' E 140°60'713.7
2018-Apr-23 05:30N 41°37' E 141°08'713.2
2018-Apr-23 05:00N 41°35' E 141°17'1 1.4
2018-Apr-23 04:30N 41°35' E 141°17'1 1.4
2018-Apr-23 04:00N 41°34' E 141°16'1 1.6
2018-Apr-23 03:30N 41°33' E 141°16'5 9.3
2018-Apr-23 03:00N 41°35' E 141°10'612.3
2018-Apr-23 02:30N 41°37' E 141°02'612.8
2018-Apr-23 02:00N 41°40' E 140°54'612.5
2018-Apr-23 01:30N 41°42' E 140°46'611.8
2018-Apr-23 01:01N 41°46' E 140°40'3 5.6
2018-Apr-23 00:30N 41°47' E 140°43'0 0.0
2018-Apr-23 00:00N 41°47' E 140°43'0 0.0
2018-Apr-22 23:30N 41°47' E 140°43'0 0.0
2018-Apr-22 23:00N 41°47' E 140°43'0 0.0
2018-Apr-22 22:30N 41°47' E 140°43'0 0.0
2018-Apr-22 22:00N 41°47' E 140°43'0 0.0
2018-Apr-22 21:30N 41°47' E 140°43'0 0.0
2018-Apr-22 21:00N 41°47' E 140°43'0 0.0
2018-Apr-22 20:30N 41°47' E 140°43'0 0.0
2018-Apr-22 20:00N 41°47' E 140°43'0 0.0
2018-Apr-22 19:30N 41°47' E 140°43'0 0.0
2018-Apr-22 18:59N 41°47' E 140°43'0 0.0
2018-Apr-22 18:29N 41°47' E 140°43'0 0.0
2018-Apr-22 17:59N 41°47' E 140°43'0 0.0
2018-Apr-22 17:26N 41°47' E 140°43'0 0.0
2018-Apr-22 16:59N 41°47' E 140°43'0 0.0
2018-Apr-22 16:29N 41°47' E 140°43'0 0.0
2018-Apr-22 15:59N 41°47' E 140°43'0 0.0
2018-Apr-22 15:29N 41°47' E 140°43'0 0.0
2018-Apr-22 14:56N 41°47' E 140°43'0 0.0
2018-Apr-22 14:29N 41°47' E 140°43'0 0.0
2018-Apr-22 13:56N 41°47' E 140°43'0 0.0
2018-Apr-22 13:29N 41°47' E 140°43'0 0.0
2018-Apr-22 12:59N 41°47' E 140°43'0 0.0
2018-Apr-22 12:29N 41°47' E 140°43'0 0.0
2018-Apr-22 11:59N 41°47' E 140°43'0 0.0
2018-Apr-22 11:26N 41°47' E 140°43'0 0.0
2018-Apr-22 10:50N 41°47' E 140°43'0 0.0
2018-Apr-22 10:29N 41°47' E 140°43'0 0.0
2018-Apr-22 09:59N 41°47' E 140°43'0 0.0
2018-Apr-22 09:29N 41°47' E 140°43'0 0.0
2018-Apr-22 08:56N 41°47' E 140°43'0 0.0
2018-Apr-22 08:29N 41°47' E 140°43'0 0.0
2018-Apr-22 07:56N 41°47' E 140°43'0 0.0
2018-Apr-22 07:20N 41°47' E 140°43'0 0.0
2018-Apr-22 06:59N 41°47' E 140°43'0 0.0
2018-Apr-22 06:29N 41°47' E 140°43'0 0.0
2018-Apr-22 05:56N 41°47' E 140°43'0 0.0
2018-Apr-22 05:26N 41°47' E 140°43'0 0.0
2018-Apr-22 04:56N 41°47' E 140°43'0 0.0
2018-Apr-22 04:26N 41°47' E 140°43'0 0.0
2018-Apr-22 03:59N 41°47' E 140°43'0 0.0
2018-Apr-22 03:29N 41°47' E 140°43'0 0.0
2018-Apr-22 03:01N 41°47' E 140°43'0 0.0
2018-Apr-22 02:31N 41°47' E 140°43'0 0.0
2018-Apr-22 02:01N 41°47' E 140°43'0 0.0
2018-Apr-22 01:31N 41°47' E 140°43'0 0.0
2018-Apr-22 01:01N 41°47' E 140°43'0 0.0
2018-Apr-22 00:31N 41°47' E 140°43'0 0.0
2018-Apr-22 00:01N 41°47' E 140°43'0 0.0
2018-Apr-21 23:31N 41°47' E 140°43'0 0.0
2018-Apr-21 23:01N 41°47' E 140°43'0 0.0
2018-Apr-21 22:31N 41°47' E 140°43'0 0.0
2018-Apr-21 22:01N 41°47' E 140°43'0 0.0
2018-Apr-21 21:28N 41°47' E 140°43'0 0.0
2018-Apr-21 21:01N 41°47' E 140°43'0 0.0
2018-Apr-21 20:28N 41°47' E 140°43'0 0.0
2018-Apr-21 20:01N 41°47' E 140°43'0 0.0
2018-Apr-21 19:28N 41°47' E 140°43'0 0.0
2018-Apr-21 18:58N 41°47' E 140°43'0 0.0
2018-Apr-21 18:28N 41°47' E 140°43'0 0.0
2018-Apr-21 18:01N 41°47' E 140°43'0 0.0
2018-Apr-21 17:28N 41°47' E 140°43'0 0.0
2018-Apr-21 16:55N 41°47' E 140°43'0 0.0
2018-Apr-21 16:31N 41°47' E 140°43'0 0.0
2018-Apr-21 15:58N 41°47' E 140°43'0 0.0
2018-Apr-21 15:28N 41°47' E 140°43'0 0.0
2018-Apr-21 14:58N 41°47' E 140°43'0 0.0
2018-Apr-21 14:25N 41°47' E 140°43'0 0.0
2018-Apr-21 14:01N 41°47' E 140°43'0 0.0
2018-Apr-21 13:31N 41°47' E 140°43'0 0.0
2018-Apr-21 13:01N 41°47' E 140°43'0 0.0
2018-Apr-21 12:31N 41°47' E 140°43'0 0.0
2018-Apr-21 12:01N 41°47' E 140°43'0 0.0
2018-Apr-21 11:31N 41°47' E 140°43'0 0.0
2018-Apr-21 10:59N 41°47' E 140°43'0 0.0
2018-Apr-21 10:29N 41°47' E 140°43'0 0.0
2018-Apr-21 09:59N 41°47' E 140°43'0 0.0
2018-Apr-21 09:29N 41°47' E 140°43'0 0.0
2018-Apr-21 08:59N 41°47' E 140°43'0 0.0
2018-Apr-21 08:11N 41°47' E 140°43'0 0.0
2018-Apr-21 07:56N 41°47' E 140°43'0 0.0
2018-Apr-21 07:29N 41°47' E 140°43'0 0.0
2018-Apr-21 06:59N 41°47' E 140°43'0 0.0
2018-Apr-21 06:29N 41°47' E 140°43'0 0.0
2018-Apr-21 05:59N 41°47' E 140°43'0 0.0
2018-Apr-21 05:29N 41°47' E 140°43'0 0.0
2018-Apr-21 04:53N 41°47' E 140°43'0 0.0
2018-Apr-21 04:26N 41°47' E 140°43'0 0.0
2018-Apr-21 03:59N 41°47' E 140°43'0 0.0
2018-Apr-21 03:29N 41°47' E 140°43'0 0.0
2018-Apr-21 02:59N 41°47' E 140°43'0 0.0
2018-Apr-21 02:29N 41°47' E 140°43'0 0.0
2018-Apr-21 01:59N 41°47' E 140°43'0 0.0
2018-Apr-21 01:29N 41°47' E 140°43'0 0.0
2018-Apr-21 00:59N 41°47' E 140°43'0 0.0
2018-Apr-21 00:29N 41°47' E 140°43'0 0.0
2018-Apr-20 23:59N 41°47' E 140°43'0 0.0
2018-Apr-20 23:29N 41°47' E 140°43'0 0.0
2018-Apr-20 22:59N 41°47' E 140°43'0 0.0
2018-Apr-20 22:29N 41°47' E 140°43'0 0.0
2018-Apr-20 21:59N 41°47' E 140°43'0 0.0
2018-Apr-20 21:29N 41°47' E 140°43'0 0.0
2018-Apr-20 20:59N 41°47' E 140°43'0 0.0
2018-Apr-20 20:29N 41°47' E 140°43'0 0.0
2018-Apr-20 19:56N 41°47' E 140°43'0 0.0
2018-Apr-20 19:29N 41°47' E 140°43'0 0.0
2018-Apr-20 18:58N 41°47' E 140°43'0 0.0
2018-Apr-20 18:28N 41°47' E 140°43'0 0.0
2018-Apr-20 17:58N 41°47' E 140°43'0 0.0
2018-Apr-20 17:28N 41°47' E 140°43'0 0.0
2018-Apr-20 16:58N 41°47' E 140°43'0 0.0
2018-Apr-20 16:28N 41°47' E 140°43'0 0.0
2018-Apr-20 15:58N 41°47' E 140°43'0 0.0
2018-Apr-20 15:28N 41°47' E 140°43'0 0.0
2018-Apr-20 14:58N 41°47' E 140°43'0 0.0
2018-Apr-20 14:28N 41°47' E 140°43'0 0.0
2018-Apr-20 13:52N 41°47' E 140°43'0 0.0
2018-Apr-20 13:28N 41°47' E 140°43'0 0.0
2018-Apr-20 12:58N 41°47' E 140°43'0 0.0
2018-Apr-20 12:28N 41°47' E 140°43'0 0.0
2018-Apr-20 11:58N 41°47' E 140°43'0 0.0
2018-Apr-20 11:28N 41°47' E 140°43'0 0.0
2018-Apr-20 10:52N 41°47' E 140°43'0 0.0
2018-Apr-20 10:28N 41°47' E 140°43'0 0.0
2018-Apr-20 09:58N 41°47' E 140°43'0 0.0
2018-Apr-20 09:28N 41°47' E 140°43'0 0.0
2018-Apr-20 08:58N 41°47' E 140°43'0 0.0
2018-Apr-20 08:28N 41°47' E 140°43'0 0.0
2018-Apr-20 07:58N 41°47' E 140°43'0 0.0
2018-Apr-20 07:28N 41°47' E 140°43'0 0.0
2018-Apr-20 06:58N 41°47' E 140°43'0 0.0
2018-Apr-20 06:28N 41°47' E 140°43'0 0.0
2018-Apr-20 05:58N 41°47' E 140°43'0 0.1
2018-Apr-20 05:30N 41°47' E 140°43'3 7.0
2018-Apr-20 05:01N 41°45' E 140°40'815.7
2018-Apr-20 04:30N 41°38' E 140°35'917.3
2018-Apr-20 04:00N 41°30' E 140°30'917.8
2018-Apr-20 03:30N 41°23' E 140°23'917.9
2018-Apr-20 02:59N 41°15' E 140°15'1116.7
2018-Apr-20 02:20N 41°06' E 140°08'515.3
2018-Apr-20 01:58N 41°01' E 140°05'1215.2
2018-Apr-20 01:10N 40°50' E 139°57'315.7
2018-Apr-20 00:59N 40°48' E 139°56'  
2018-Apr-17 11:50N 34°27' E 130°54'413.2
2018-Apr-17 11:30N 34°24' E 130°50'612.3
2018-Apr-17 10:59N 34°18' E 130°47'713.8
2018-Apr-17 10:30N 34°11' E 130°49'713.9
2018-Apr-17 10:01N 34°05' E 130°51'713.4
2018-Apr-17 09:31N 33°58' E 130°53'4 7.5
2018-Apr-17 09:00N 33°55' E 130°56'4 8.3
2018-Apr-17 08:30N 33°58' E 130°59'3 5.6
2018-Apr-17 08:00N 33°58' E 131°02'612.6
2018-Apr-17 07:30N 33°54' E 131°08'612.5
2018-Apr-17 07:00N 33°52' E 131°15'713.7
2018-Apr-17 06:29N 33°53' E 131°24'613.4
2018-Apr-17 06:00N 33°54' E 131°31'713.3
2018-Apr-17 05:30N 33°57' E 131°39'612.8
2018-Apr-17 05:00N 33°60' E 131°46'4 0.6
2018-Apr-16 23:27N 34°02' E 131°49'2 3.7
2018-Apr-16 23:00N 34°01' E 131°47'0 0.0
2018-Apr-16 22:26N 34°01' E 131°47'0 0.0
2018-Apr-16 21:56N 34°01' E 131°47'0 0.0
2018-Apr-16 21:26N 34°01' E 131°47'0 0.0
2018-Apr-16 20:56N 34°01' E 131°47'0 0.0
2018-Apr-16 20:20N 34°01' E 131°47'0 0.0
2018-Apr-16 19:56N 34°01' E 131°47'0 0.0
2018-Apr-16 19:26N 34°01' E 131°47'0 0.0
2018-Apr-16 18:50N 34°01' E 131°47'0 0.0
2018-Apr-16 18:26N 34°01' E 131°47'0 0.0
2018-Apr-16 17:56N 34°01' E 131°47'0 0.0
2018-Apr-16 17:20N 34°01' E 131°47'0 0.0
2018-Apr-16 16:56N 34°01' E 131°47'0 0.0
2018-Apr-16 16:26N 34°01' E 131°47'0 0.0
2018-Apr-16 15:56N 34°01' E 131°47'0 0.0
2018-Apr-16 15:26N 34°01' E 131°47'0 0.0
2018-Apr-16 14:50N 34°01' E 131°47'0 0.1
2018-Apr-16 14:26N 34°01' E 131°47'0 0.0
2018-Apr-16 13:56N 34°01' E 131°47'0 0.0
2018-Apr-16 13:20N 34°01' E 131°47'2 4.8
2018-Apr-16 13:00N 33°60' E 131°46'612.5
2018-Apr-16 12:31N 33°54' E 131°46'714.2
2018-Apr-16 12:00N 33°47' E 131°48'714.3
2018-Apr-16 11:31N 33°40' E 131°46'815.5
2018-Apr-16 11:00N 33°32' E 131°47'915.4
2018-Apr-16 10:25N 33°23' E 131°44'614.3
2018-Apr-16 10:00N 33°18' E 131°41'1 0.3
2018-Apr-16 05:04N 33°17' E 131°41'0 2.7
2018-Apr-16 04:59N 33°17' E 131°41'5 9.6
2018-Apr-16 04:29N 33°21' E 131°42'0 0.6
2018-Apr-16 03:59N 33°22' E 131°42'0 0.0
2018-Apr-16 03:29N 33°22' E 131°42'0 0.0
2018-Apr-16 02:53N 33°22' E 131°42'0 0.0
2018-Apr-16 02:29N 33°22' E 131°42'0 0.0
2018-Apr-16 01:59N 33°22' E 131°42'5 8.8
2018-Apr-16 01:26N 33°26' E 131°46'714.1
2018-Apr-16 00:56N 33°32' E 131°47'715.0
2018-Apr-16 00:30N 33°39' E 131°47'714.6
2018-Apr-16 00:00N 33°46' E 131°46'714.4
2018-Apr-15 23:30N 33°53' E 131°45'713.3
2018-Apr-15 23:00N 33°60' E 131°46'0 0.8
2018-Apr-15 22:26N 33°60' E 131°46'0 0.0
2018-Apr-15 21:59N 33°60' E 131°46'0 0.1
2018-Apr-15 21:14N 33°60' E 131°46'0 0.0
2018-Apr-15 20:44N 33°60' E 131°46'0 0.0
2018-Apr-15 20:26N 33°60' E 131°46'0 0.0
2018-Apr-15 19:50N 33°60' E 131°46'0 0.0
2018-Apr-15 19:26N 33°60' E 131°46'0 0.0
2018-Apr-15 18:56N 33°60' E 131°46'0 0.0
2018-Apr-15 18:26N 33°60' E 131°46'0 0.0
2018-Apr-15 17:56N 33°60' E 131°46'0 0.1
2018-Apr-15 17:26N 33°60' E 131°46'0 0.0
2018-Apr-15 16:56N 33°60' E 131°46'0 0.0
2018-Apr-15 16:29N 33°60' E 131°46'0 0.1
2018-Apr-15 15:56N 33°60' E 131°46'0 0.0
2018-Apr-15 15:26N 33°60' E 131°46'0 0.0
2018-Apr-15 14:56N 33°60' E 131°46'0 0.0
2018-Apr-15 14:26N 33°60' E 131°46'0 0.0
2018-Apr-15 13:56N 33°60' E 131°46'0 0.0
2018-Apr-15 13:20N 33°60' E 131°46'0 0.1
2018-Apr-15 12:56N 33°60' E 131°46'0 0.0
2018-Apr-15 12:26N 33°60' E 131°46'0 0.0
2018-Apr-15 11:56N 33°60' E 131°46'0 0.0
2018-Apr-15 11:20N 33°60' E 131°46'0 0.1
2018-Apr-15 10:38N 33°60' E 131°46'0 0.0
2018-Apr-15 10:26N 33°60' E 131°46'0 0.0
2018-Apr-15 09:56N 33°60' E 131°46'0 0.0
2018-Apr-15 09:20N 33°60' E 131°46'0 0.0
2018-Apr-15 08:54N 33°60' E 131°46'0 0.1
2018-Apr-15 08:31N 33°60' E 131°46'3 0.3
2018-Apr-14 23:24N 34°02' E 131°49'3 6.9
2018-Apr-14 23:00N 34°00' E 131°46'0 0.5
2018-Apr-14 22:26N 33°60' E 131°46'0 0.0
2018-Apr-14 21:32N 33°60' E 131°46'0 0.0
2018-Apr-14 21:26N 33°60' E 131°46'0 0.0
2018-Apr-14 19:32N 33°60' E 131°46'0 0.0
2018-Apr-14 19:26N 33°60' E 131°46'0 0.1
2018-Apr-14 18:56N 33°60' E 131°46'0 0.0
2018-Apr-14 18:26N 33°60' E 131°46'0 0.0
2018-Apr-14 17:56N 33°60' E 131°46'0 0.0
2018-Apr-14 17:20N 33°60' E 131°46'0 0.0
2018-Apr-14 16:51N 33°60' E 131°46'0 0.3
2018-Apr-14 16:31N 33°60' E 131°46'4 7.5
2018-Apr-14 16:00N 33°56' E 131°47'712.3
2018-Apr-14 15:27N 33°52' E 131°53'612.6
2018-Apr-14 14:58N 33°48' E 131°59'610.7
2018-Apr-14 14:26N 33°47' E 132°06'713.2
2018-Apr-14 13:54N 33°50' E 132°13'612.9
2018-Apr-14 13:29N 33°50' E 132°20'712.1
2018-Apr-14 12:56N 33°52' E 132°28'613.0
2018-Apr-14 12:30N 33°54' E 132°34'612.7
2018-Apr-14 12:00N 33°57' E 132°41'611.7
2018-Apr-14 11:30N 34°01' E 132°45'  

Dump ship's entire track history